sensor_id;sensor_type;location;lat;lon;timestamp;temperature;humidity
4245;DHT22;2136;48.502;9.194;2022-09-09T00:00:19;16.70;84.80
4245;DHT22;2136;48.502;9.194;2022-09-09T00:02:51;16.60;84.70
4245;DHT22;2136;48.502;9.194;2022-09-09T00:05:29;16.60;85.10
4245;DHT22;2136;48.502;9.194;2022-09-09T00:08:00;16.60;86.10
4245;DHT22;2136;48.502;9.194;2022-09-09T00:10:32;16.50;86.20
4245;DHT22;2136;48.502;9.194;2022-09-09T00:13:05;16.60;88.30
4245;DHT22;2136;48.502;9.194;2022-09-09T00:15:39;16.50;89.10
4245;DHT22;2136;48.502;9.194;2022-09-09T00:18:16;16.40;89.70
4245;DHT22;2136;48.502;9.194;2022-09-09T00:20:49;16.40;90.30
4245;DHT22;2136;48.502;9.194;2022-09-09T00:23:24;16.40;90.50
4245;DHT22;2136;48.502;9.194;2022-09-09T00:25:59;16.40;90.80
4245;DHT22;2136;48.502;9.194;2022-09-09T00:28:29;16.30;92.10
4245;DHT22;2136;48.502;9.194;2022-09-09T00:31:00;16.30;92.00
4245;DHT22;2136;48.502;9.194;2022-09-09T00:33:30;16.30;92.70
4245;DHT22;2136;48.502;9.194;2022-09-09T00:36:00;16.30;92.60
4245;DHT22;2136;48.502;9.194;2022-09-09T00:38:32;16.30;93.00
4245;DHT22;2136;48.502;9.194;2022-09-09T00:41:09;16.30;92.80
4245;DHT22;2136;48.502;9.194;2022-09-09T00:43:39;16.20;92.20
4245;DHT22;2136;48.502;9.194;2022-09-09T00:46:21;16.20;92.10
4245;DHT22;2136;48.502;9.194;2022-09-09T00:48:58;16.20;92.00
4245;DHT22;2136;48.502;9.194;2022-09-09T00:51:39;16.20;92.30
4245;DHT22;2136;48.502;9.194;2022-09-09T00:54:28;16.20;93.00
4245;DHT22;2136;48.502;9.194;2022-09-09T00:57:07;16.10;93.90
4245;DHT22;2136;48.502;9.194;2022-09-09T00:59:45;16.10;94.00
4245;DHT22;2136;48.502;9.194;2022-09-09T01:02:21;16.10;93.40
4245;DHT22;2136;48.502;9.194;2022-09-09T01:04:50;16.10;93.50
4245;DHT22;2136;48.502;9.194;2022-09-09T01:07:19;16.00;94.20
4245;DHT22;2136;48.502;9.194;2022-09-09T01:09:52;16.10;94.40
4245;DHT22;2136;48.502;9.194;2022-09-09T01:12:26;16.00;94.30
4245;DHT22;2136;48.502;9.194;2022-09-09T01:15:01;16.00;94.70
4245;DHT22;2136;48.502;9.194;2022-09-09T01:17:32;16.00;95.20
4245;DHT22;2136;48.502;9.194;2022-09-09T01:20:05;16.00;95.10
4245;DHT22;2136;48.502;9.194;2022-09-09T01:22:40;16.00;95.20
4245;DHT22;2136;48.502;9.194;2022-09-09T01:25:22;16.00;95.60
4245;DHT22;2136;48.502;9.194;2022-09-09T01:27:56;15.90;95.50
4245;DHT22;2136;48.502;9.194;2022-09-09T01:30:24;15.90;95.30
4245;DHT22;2136;48.502;9.194;2022-09-09T01:32:55;15.90;95.30
4245;DHT22;2136;48.502;9.194;2022-09-09T01:35:31;15.90;95.20
4245;DHT22;2136;48.502;9.194;2022-09-09T01:37:59;15.90;95.50
4245;DHT22;2136;48.502;9.194;2022-09-09T01:40:26;15.90;95.00
4245;DHT22;2136;48.502;9.194;2022-09-09T01:42:55;15.90;94.80
4245;DHT22;2136;48.502;9.194;2022-09-09T01:45:22;15.90;94.80
4245;DHT22;2136;48.502;9.194;2022-09-09T01:47:51;15.90;94.50
4245;DHT22;2136;48.502;9.194;2022-09-09T01:50:18;15.90;94.80
4245;DHT22;2136;48.502;9.194;2022-09-09T01:52:47;15.80;94.20
4245;DHT22;2136;48.502;9.194;2022-09-09T01:55:15;15.90;93.90
4245;DHT22;2136;48.502;9.194;2022-09-09T01:57:49;15.80;93.40
4245;DHT22;2136;48.502;9.194;2022-09-09T02:00:18;15.80;92.90
4245;DHT22;2136;48.502;9.194;2022-09-09T02:02:51;15.70;92.70
4245;DHT22;2136;48.502;9.194;2022-09-09T02:05:33;15.70;92.70
4245;DHT22;2136;48.502;9.194;2022-09-09T02:08:05;15.60;93.20
4245;DHT22;2136;48.502;9.194;2022-09-09T02:10:37;15.60;93.50
4245;DHT22;2136;48.502;9.194;2022-09-09T02:13:10;15.50;94.20
4245;DHT22;2136;48.502;9.194;2022-09-09T02:15:44;15.50;95.00
4245;DHT22;2136;48.502;9.194;2022-09-09T02:18:14;15.40;96.30
4245;DHT22;2136;48.502;9.194;2022-09-09T02:20:45;15.50;96.20
4245;DHT22;2136;48.502;9.194;2022-09-09T02:23:13;15.50;96.10
4245;DHT22;2136;48.502;9.194;2022-09-09T02:25:41;15.50;96.10
4245;DHT22;2136;48.502;9.194;2022-09-09T02:28:10;15.50;95.90
4245;DHT22;2136;48.502;9.194;2022-09-09T02:30:41;15.50;96.80
4245;DHT22;2136;48.502;9.194;2022-09-09T02:33:09;15.50;97.60
4245;DHT22;2136;48.502;9.194;2022-09-09T02:35:39;15.60;98.10
4245;DHT22;2136;48.502;9.194;2022-09-09T02:38:09;15.50;97.70
4245;DHT22;2136;48.502;9.194;2022-09-09T02:40:37;15.60;98.00
4245;DHT22;2136;48.502;9.194;2022-09-09T02:43:03;15.60;98.00
4245;DHT22;2136;48.502;9.194;2022-09-09T02:45:36;15.70;99.10
4245;DHT22;2136;48.502;9.194;2022-09-09T02:48:14;15.70;99.30
4245;DHT22;2136;48.502;9.194;2022-09-09T02:50:50;15.70;99.40
4245;DHT22;2136;48.502;9.194;2022-09-09T02:53:22;15.80;99.40
4245;DHT22;2136;48.502;9.194;2022-09-09T02:55:55;15.90;98.70
4245;DHT22;2136;48.502;9.194;2022-09-09T02:58:25;15.90;99.10
4245;DHT22;2136;48.502;9.194;2022-09-09T03:00:51;15.90;99.30
4245;DHT22;2136;48.502;9.194;2022-09-09T03:03:20;15.90;99.90
4245;DHT22;2136;48.502;9.194;2022-09-09T03:05:47;16.00;99.90
4245;DHT22;2136;48.502;9.194;2022-09-09T03:08:15;16.00;99.70
4245;DHT22;2136;48.502;9.194;2022-09-09T03:10:42;16.10;99.10
4245;DHT22;2136;48.502;9.194;2022-09-09T03:13:09;16.10;99.20
4245;DHT22;2136;48.502;9.194;2022-09-09T03:15:38;16.20;98.50
4245;DHT22;2136;48.502;9.194;2022-09-09T03:18:05;16.20;98.00
4245;DHT22;2136;48.502;9.194;2022-09-09T03:20:33;16.20;97.90
4245;DHT22;2136;48.502;9.194;2022-09-09T03:23:00;16.30;97.30
4245;DHT22;2136;48.502;9.194;2022-09-09T03:25:28;16.50;96.80
4245;DHT22;2136;48.502;9.194;2022-09-09T03:27:55;16.40;95.60
4245;DHT22;2136;48.502;9.194;2022-09-09T03:30:23;16.40;94.90
4245;DHT22;2136;48.502;9.194;2022-09-09T03:32:50;16.50;94.70
4245;DHT22;2136;48.502;9.194;2022-09-09T03:35:18;16.50;95.90
4245;DHT22;2136;48.502;9.194;2022-09-09T03:37:46;16.50;96.20
4245;DHT22;2136;48.502;9.194;2022-09-09T03:40:13;16.50;95.50
4245;DHT22;2136;48.502;9.194;2022-09-09T03:42:40;16.50;95.20
4245;DHT22;2136;48.502;9.194;2022-09-09T03:45:09;16.50;95.00
4245;DHT22;2136;48.502;9.194;2022-09-09T03:47:36;16.50;95.40
4245;DHT22;2136;48.502;9.194;2022-09-09T03:50:03;16.60;96.60
4245;DHT22;2136;48.502;9.194;2022-09-09T03:52:34;16.50;97.60
4245;DHT22;2136;48.502;9.194;2022-09-09T03:55:03;16.50;98.40
4245;DHT22;2136;48.502;9.194;2022-09-09T03:57:30;16.50;99.10
4245;DHT22;2136;48.502;9.194;2022-09-09T03:59:57;16.50;99.00
4245;DHT22;2136;48.502;9.194;2022-09-09T04:02:26;16.50;98.80
4245;DHT22;2136;48.502;9.194;2022-09-09T04:04:53;16.50;98.50
4245;DHT22;2136;48.502;9.194;2022-09-09T04:07:20;16.60;97.90
4245;DHT22;2136;48.502;9.194;2022-09-09T04:09:47;16.60;97.50
4245;DHT22;2136;48.502;9.194;2022-09-09T04:12:15;16.60;97.20
4245;DHT22;2136;48.502;9.194;2022-09-09T04:14:42;16.60;97.80
4245;DHT22;2136;48.502;9.194;2022-09-09T04:17:08;16.70;97.40
4245;DHT22;2136;48.502;9.194;2022-09-09T04:19:35;16.70;96.90
4245;DHT22;2136;48.502;9.194;2022-09-09T04:22:02;16.70;97.60
4245;DHT22;2136;48.502;9.194;2022-09-09T04:24:29;16.70;98.00
4245;DHT22;2136;48.502;9.194;2022-09-09T04:26:56;16.60;98.20
4245;DHT22;2136;48.502;9.194;2022-09-09T04:29:24;16.60;98.40
4245;DHT22;2136;48.502;9.194;2022-09-09T04:31:51;16.60;98.90
4245;DHT22;2136;48.502;9.194;2022-09-09T04:34:18;16.60;98.60
4245;DHT22;2136;48.502;9.194;2022-09-09T04:36:45;16.60;97.60
4245;DHT22;2136;48.502;9.194;2022-09-09T04:39:12;16.60;97.20
4245;DHT22;2136;48.502;9.194;2022-09-09T04:41:40;16.60;96.60
4245;DHT22;2136;48.502;9.194;2022-09-09T04:44:07;16.60;97.00
4245;DHT22;2136;48.502;9.194;2022-09-09T04:46:35;16.60;97.80
4245;DHT22;2136;48.502;9.194;2022-09-09T04:49:02;16.60;97.90
4245;DHT22;2136;48.502;9.194;2022-09-09T04:51:28;16.60;98.60
4245;DHT22;2136;48.502;9.194;2022-09-09T04:53:56;16.60;99.30
4245;DHT22;2136;48.502;9.194;2022-09-09T04:56:23;16.60;99.70
4245;DHT22;2136;48.502;9.194;2022-09-09T04:58:52;16.50;99.90
4245;DHT22;2136;48.502;9.194;2022-09-09T05:01:21;16.50;99.90
4245;DHT22;2136;48.502;9.194;2022-09-09T05:03:50;16.50;99.90
4245;DHT22;2136;48.502;9.194;2022-09-09T05:06:20;16.50;99.90
4245;DHT22;2136;48.502;9.194;2022-09-09T05:08:47;16.60;99.90
4245;DHT22;2136;48.502;9.194;2022-09-09T05:11:16;16.60;99.90
4245;DHT22;2136;48.502;9.194;2022-09-09T05:13:43;16.70;99.90
4245;DHT22;2136;48.502;9.194;2022-09-09T05:16:10;16.70;99.90
4245;DHT22;2136;48.502;9.194;2022-09-09T05:18:37;16.70;99.30
4245;DHT22;2136;48.502;9.194;2022-09-09T05:21:06;16.80;97.80
4245;DHT22;2136;48.502;9.194;2022-09-09T05:23:33;16.80;96.60
4245;DHT22;2136;48.502;9.194;2022-09-09T05:26:01;16.90;96.10
4245;DHT22;2136;48.502;9.194;2022-09-09T05:28:28;16.90;96.00
4245;DHT22;2136;48.502;9.194;2022-09-09T05:30:57;17.00;96.20
4245;DHT22;2136;48.502;9.194;2022-09-09T05:33:24;17.00;96.00
4245;DHT22;2136;48.502;9.194;2022-09-09T05:35:56;17.10;95.40
4245;DHT22;2136;48.502;9.194;2022-09-09T05:38:25;17.10;95.00
4245;DHT22;2136;48.502;9.194;2022-09-09T05:40:52;17.10;94.80
4245;DHT22;2136;48.502;9.194;2022-09-09T05:43:19;17.10;94.60
4245;DHT22;2136;48.502;9.194;2022-09-09T05:45:46;17.10;94.50
4245;DHT22;2136;48.502;9.194;2022-09-09T05:48:14;17.20;94.50
4245;DHT22;2136;48.502;9.194;2022-09-09T05:50:41;17.20;94.50
4245;DHT22;2136;48.502;9.194;2022-09-09T05:53:08;17.20;94.20
4245;DHT22;2136;48.502;9.194;2022-09-09T05:55:37;17.20;94.20
4245;DHT22;2136;48.502;9.194;2022-09-09T05:58:03;17.30;94.00
4245;DHT22;2136;48.502;9.194;2022-09-09T06:00:30;17.30;93.90
4245;DHT22;2136;48.502;9.194;2022-09-09T06:02:58;17.30;93.70
4245;DHT22;2136;48.502;9.194;2022-09-09T06:05:25;17.40;93.60
4245;DHT22;2136;48.502;9.194;2022-09-09T06:07:54;17.30;94.00
4245;DHT22;2136;48.502;9.194;2022-09-09T06:10:21;17.40;95.20
4245;DHT22;2136;48.502;9.194;2022-09-09T06:12:52;17.40;95.40
4245;DHT22;2136;48.502;9.194;2022-09-09T06:15:19;17.40;95.40
4245;DHT22;2136;48.502;9.194;2022-09-09T06:17:46;17.50;95.70
4245;DHT22;2136;48.502;9.194;2022-09-09T06:20:13;17.60;95.40
4245;DHT22;2136;48.502;9.194;2022-09-09T06:22:40;17.60;94.70
4245;DHT22;2136;48.502;9.194;2022-09-09T06:25:08;17.70;94.60
4245;DHT22;2136;48.502;9.194;2022-09-09T06:27:35;17.80;94.40
4245;DHT22;2136;48.502;9.194;2022-09-09T06:30:03;17.90;94.10
4245;DHT22;2136;48.502;9.194;2022-09-09T06:32:30;17.90;94.20
4245;DHT22;2136;48.502;9.194;2022-09-09T06:35:00;18.00;93.70
4245;DHT22;2136;48.502;9.194;2022-09-09T06:37:27;18.10;93.50
4245;DHT22;2136;48.502;9.194;2022-09-09T06:39:54;18.10;93.40
4245;DHT22;2136;48.502;9.194;2022-09-09T06:42:21;18.30;93.20
4245;DHT22;2136;48.502;9.194;2022-09-09T06:44:48;18.40;92.70
4245;DHT22;2136;48.502;9.194;2022-09-09T06:47:16;18.50;92.30
4245;DHT22;2136;48.502;9.194;2022-09-09T06:49:43;18.60;91.50
4245;DHT22;2136;48.502;9.194;2022-09-09T06:52:10;18.80;91.20
4245;DHT22;2136;48.502;9.194;2022-09-09T06:54:37;18.90;90.60
4245;DHT22;2136;48.502;9.194;2022-09-09T06:57:04;19.00;89.30
4245;DHT22;2136;48.502;9.194;2022-09-09T06:59:32;19.10;87.70
4245;DHT22;2136;48.502;9.194;2022-09-09T07:01:59;19.20;87.10
4245;DHT22;2136;48.502;9.194;2022-09-09T07:04:28;19.20;85.40
4245;DHT22;2136;48.502;9.194;2022-09-09T07:06:54;19.20;84.30
4245;DHT22;2136;48.502;9.194;2022-09-09T07:09:21;19.20;83.30
4245;DHT22;2136;48.502;9.194;2022-09-09T07:11:50;19.20;83.30
4245;DHT22;2136;48.502;9.194;2022-09-09T07:14:18;19.30;83.30
4245;DHT22;2136;48.502;9.194;2022-09-09T07:16:46;19.30;83.60
4245;DHT22;2136;48.502;9.194;2022-09-09T07:19:13;19.40;83.30
4245;DHT22;2136;48.502;9.194;2022-09-09T07:21:42;19.50;82.00
4245;DHT22;2136;48.502;9.194;2022-09-09T07:24:10;19.60;80.90
4245;DHT22;2136;48.502;9.194;2022-09-09T07:26:38;19.70;79.50
4245;DHT22;2136;48.502;9.194;2022-09-09T07:29:05;19.80;78.50
4245;DHT22;2136;48.502;9.194;2022-09-09T07:31:34;19.90;77.60
4245;DHT22;2136;48.502;9.194;2022-09-09T07:34:02;19.90;77.50
4245;DHT22;2136;48.502;9.194;2022-09-09T07:36:30;20.10;77.00
4245;DHT22;2136;48.502;9.194;2022-09-09T07:39:01;20.10;76.30
4245;DHT22;2136;48.502;9.194;2022-09-09T07:41:30;20.20;75.80
4245;DHT22;2136;48.502;9.194;2022-09-09T07:44:03;20.30;75.70
4245;DHT22;2136;48.502;9.194;2022-09-09T07:46:30;20.40;75.20
4245;DHT22;2136;48.502;9.194;2022-09-09T07:48:57;20.50;75.40
4245;DHT22;2136;48.502;9.194;2022-09-09T07:51:27;20.60;74.80
4245;DHT22;2136;48.502;9.194;2022-09-09T07:53:57;20.60;74.70
4245;DHT22;2136;48.502;9.194;2022-09-09T07:56:26;20.70;74.90
4245;DHT22;2136;48.502;9.194;2022-09-09T07:58:54;20.80;75.00
4245;DHT22;2136;48.502;9.194;2022-09-09T08:01:24;21.00;75.10
4245;DHT22;2136;48.502;9.194;2022-09-09T08:03:55;21.00;74.70
4245;DHT22;2136;48.502;9.194;2022-09-09T08:06:25;21.20;75.10
4245;DHT22;2136;48.502;9.194;2022-09-09T08:08:53;21.40;74.30
4245;DHT22;2136;48.502;9.194;2022-09-09T08:11:23;21.50;73.00
4245;DHT22;2136;48.502;9.194;2022-09-09T08:13:52;21.60;72.70
4245;DHT22;2136;48.502;9.194;2022-09-09T08:16:21;21.70;72.10
4245;DHT22;2136;48.502;9.194;2022-09-09T08:18:48;21.70;69.80
4245;DHT22;2136;48.502;9.194;2022-09-09T08:21:17;21.70;69.20
4245;DHT22;2136;48.502;9.194;2022-09-09T08:23:45;21.60;68.80
4245;DHT22;2136;48.502;9.194;2022-09-09T08:26:14;21.60;69.10
4245;DHT22;2136;48.502;9.194;2022-09-09T08:28:42;21.60;68.50
4245;DHT22;2136;48.502;9.194;2022-09-09T08:31:12;21.50;68.20
4245;DHT22;2136;48.502;9.194;2022-09-09T08:33:40;21.50;68.40
4245;DHT22;2136;48.502;9.194;2022-09-09T08:36:09;21.40;68.70
4245;DHT22;2136;48.502;9.194;2022-09-09T08:38:36;21.50;68.80
4245;DHT22;2136;48.502;9.194;2022-09-09T08:41:29;21.50;68.70
4245;DHT22;2136;48.502;9.194;2022-09-09T08:44:05;21.70;67.90
4245;DHT22;2136;48.502;9.194;2022-09-09T08:46:42;21.70;66.50
4245;DHT22;2136;48.502;9.194;2022-09-09T08:49:30;21.80;65.60
4245;DHT22;2136;48.502;9.194;2022-09-09T08:52:00;21.80;65.00
4245;DHT22;2136;48.502;9.194;2022-09-09T08:54:32;21.80;63.20
4245;DHT22;2136;48.502;9.194;2022-09-09T08:57:00;21.90;61.80
4245;DHT22;2136;48.502;9.194;2022-09-09T08:59:27;21.90;61.80
4245;DHT22;2136;48.502;9.194;2022-09-09T09:02:01;21.80;61.80
4245;DHT22;2136;48.502;9.194;2022-09-09T09:04:48;21.90;63.30
4245;DHT22;2136;48.502;9.194;2022-09-09T09:07:23;21.90;61.50
4245;DHT22;2136;48.502;9.194;2022-09-09T09:09:59;21.90;60.70
4245;DHT22;2136;48.502;9.194;2022-09-09T09:12:32;22.10;61.00
4245;DHT22;2136;48.502;9.194;2022-09-09T09:15:01;22.50;60.80
4245;DHT22;2136;48.502;9.194;2022-09-09T09:17:35;22.90;59.10
4245;DHT22;2136;48.502;9.194;2022-09-09T09:20:10;24.30;58.80
4245;DHT22;2136;48.502;9.194;2022-09-09T09:22:44;27.10;55.60
4245;DHT22;2136;48.502;9.194;2022-09-09T09:25:16;28.80;51.90
4245;DHT22;2136;48.502;9.194;2022-09-09T09:27:49;30.60;47.90
4245;DHT22;2136;48.502;9.194;2022-09-09T09:30:19;32.50;43.70
4245;DHT22;2136;48.502;9.194;2022-09-09T09:32:53;34.10;41.90
4245;DHT22;2136;48.502;9.194;2022-09-09T09:35:20;36.20;39.20
4245;DHT22;2136;48.502;9.194;2022-09-09T09:37:48;38.40;36.60
4245;DHT22;2136;48.502;9.194;2022-09-09T09:40:16;40.50;33.20
4245;DHT22;2136;48.502;9.194;2022-09-09T09:42:52;42.20;30.00
4245;DHT22;2136;48.502;9.194;2022-09-09T09:45:27;43.40;28.20
4245;DHT22;2136;48.502;9.194;2022-09-09T09:48:01;44.00;26.20
4245;DHT22;2136;48.502;9.194;2022-09-09T09:50:29;45.00;26.20
4245;DHT22;2136;48.502;9.194;2022-09-09T09:52:58;46.00;25.40
4245;DHT22;2136;48.502;9.194;2022-09-09T09:55:26;47.00;25.10
4245;DHT22;2136;48.502;9.194;2022-09-09T09:58:01;47.90;23.80
4245;DHT22;2136;48.502;9.194;2022-09-09T10:00:28;48.60;23.60
4245;DHT22;2136;48.502;9.194;2022-09-09T10:02:55;48.80;21.90
4245;DHT22;2136;48.502;9.194;2022-09-09T10:05:24;47.00;21.90
4245;DHT22;2136;48.502;9.194;2022-09-09T10:08:02;44.90;22.30
4245;DHT22;2136;48.502;9.194;2022-09-09T10:10:51;42.80;23.70
4245;DHT22;2136;48.502;9.194;2022-09-09T10:13:27;40.40;24.50
4245;DHT22;2136;48.502;9.194;2022-09-09T10:16:06;39.00;26.70
4245;DHT22;2136;48.502;9.194;2022-09-09T10:18:47;38.50;27.20
4245;DHT22;2136;48.502;9.194;2022-09-09T10:21:31;37.40;27.60
4245;DHT22;2136;48.502;9.194;2022-09-09T10:24:16;37.80;28.80
4245;DHT22;2136;48.502;9.194;2022-09-09T10:26:53;38.00;28.40
4245;DHT22;2136;48.502;9.194;2022-09-09T10:29:37;39.90;28.10
4245;DHT22;2136;48.502;9.194;2022-09-09T10:32:33;42.50;27.00
4245;DHT22;2136;48.502;9.194;2022-09-09T10:35:09;43.90;25.30
4245;DHT22;2136;48.502;9.194;2022-09-09T10:40:33;46.80;22.40
4245;DHT22;2136;48.502;9.194;2022-09-09T10:43:11;47.50;21.90
4245;DHT22;2136;48.502;9.194;2022-09-09T10:45:47;48.10;21.00
4245;DHT22;2136;48.502;9.194;2022-09-09T10:48:30;48.70;20.60
4245;DHT22;2136;48.502;9.194;2022-09-09T10:51:05;49.30;20.80
4245;DHT22;2136;48.502;9.194;2022-09-09T10:53:45;49.90;19.80
4245;DHT22;2136;48.502;9.194;2022-09-09T10:56:16;50.80;20.50
4245;DHT22;2136;48.502;9.194;2022-09-09T10:58:48;51.90;19.60
4245;DHT22;2136;48.502;9.194;2022-09-09T11:01:20;52.60;19.10
4245;DHT22;2136;48.502;9.194;2022-09-09T11:03:53;53.00;18.80
4245;DHT22;2136;48.502;9.194;2022-09-09T11:06:24;53.40;18.80
4245;DHT22;2136;48.502;9.194;2022-09-09T11:08:55;53.20;17.80
4245;DHT22;2136;48.502;9.194;2022-09-09T11:11:28;52.70;18.00
4245;DHT22;2136;48.502;9.194;2022-09-09T11:14:01;52.40;18.50
4245;DHT22;2136;48.502;9.194;2022-09-09T11:16:33;52.20;18.40
4245;DHT22;2136;48.502;9.194;2022-09-09T11:19:11;52.40;18.70
4245;DHT22;2136;48.502;9.194;2022-09-09T11:21:44;52.40;18.50
4245;DHT22;2136;48.502;9.194;2022-09-09T11:24:18;52.20;18.50
4245;DHT22;2136;48.502;9.194;2022-09-09T11:26:51;51.90;18.20
4245;DHT22;2136;48.502;9.194;2022-09-09T11:30:10;50.90;18.30
4245;DHT22;2136;48.502;9.194;2022-09-09T11:33:07;49.10;18.90
4245;DHT22;2136;48.502;9.194;2022-09-09T11:35:46;45.70;20.30
4245;DHT22;2136;48.502;9.194;2022-09-09T11:38:19;42.60;22.20
4245;DHT22;2136;48.502;9.194;2022-09-09T11:40:55;39.80;23.90
4245;DHT22;2136;48.502;9.194;2022-09-09T11:43:25;37.50;25.70
4245;DHT22;2136;48.502;9.194;2022-09-09T11:45:55;35.40;27.10
4245;DHT22;2136;48.502;9.194;2022-09-09T11:48:28;33.40;28.60
4245;DHT22;2136;48.502;9.194;2022-09-09T11:51:01;31.80;30.00
4245;DHT22;2136;48.502;9.194;2022-09-09T11:53:31;30.60;32.90
4245;DHT22;2136;48.502;9.194;2022-09-09T11:56:10;29.70;34.10
4245;DHT22;2136;48.502;9.194;2022-09-09T11:58:43;29.00;35.20
4245;DHT22;2136;48.502;9.194;2022-09-09T12:01:16;28.30;36.40
4245;DHT22;2136;48.502;9.194;2022-09-09T12:04:00;27.90;37.20
4245;DHT22;2136;48.502;9.194;2022-09-09T12:06:32;27.60;37.70
4245;DHT22;2136;48.502;9.194;2022-09-09T12:09:07;27.40;38.50
4245;DHT22;2136;48.502;9.194;2022-09-09T12:11:36;27.20;38.10
4245;DHT22;2136;48.502;9.194;2022-09-09T12:14:03;27.00;38.10
4245;DHT22;2136;48.502;9.194;2022-09-09T12:16:32;26.70;38.50
4245;DHT22;2136;48.502;9.194;2022-09-09T12:19:13;26.50;38.40
4245;DHT22;2136;48.502;9.194;2022-09-09T12:21:46;26.20;39.10
4245;DHT22;2136;48.502;9.194;2022-09-09T12:24:19;26.00;39.50
4245;DHT22;2136;48.502;9.194;2022-09-09T12:26:53;25.80;38.80
4245;DHT22;2136;48.502;9.194;2022-09-09T12:29:27;25.60;39.20
4245;DHT22;2136;48.502;9.194;2022-09-09T12:32:02;25.50;40.10
4245;DHT22;2136;48.502;9.194;2022-09-09T12:34:37;25.50;40.10
4245;DHT22;2136;48.502;9.194;2022-09-09T12:37:11;25.30;40.50
4245;DHT22;2136;48.502;9.194;2022-09-09T12:39:45;25.20;41.30
4245;DHT22;2136;48.502;9.194;2022-09-09T12:42:19;25.20;41.90
4245;DHT22;2136;48.502;9.194;2022-09-09T12:44:53;25.10;42.30
4245;DHT22;2136;48.502;9.194;2022-09-09T12:47:23;25.00;42.70
4245;DHT22;2136;48.502;9.194;2022-09-09T12:49:51;24.80;43.00
4245;DHT22;2136;48.502;9.194;2022-09-09T12:52:25;24.80;44.30
4245;DHT22;2136;48.502;9.194;2022-09-09T12:54:52;24.80;44.60
4245;DHT22;2136;48.502;9.194;2022-09-09T12:57:23;24.70;43.90
4245;DHT22;2136;48.502;9.194;2022-09-09T12:59:51;24.80;44.40
4245;DHT22;2136;48.502;9.194;2022-09-09T13:02:21;25.00;44.00
4245;DHT22;2136;48.502;9.194;2022-09-09T13:04:49;25.10;43.70
4245;DHT22;2136;48.502;9.194;2022-09-09T13:07:17;25.10;42.90
4245;DHT22;2136;48.502;9.194;2022-09-09T13:09:44;24.90;41.50
4245;DHT22;2136;48.502;9.194;2022-09-09T13:12:15;24.70;41.50
4245;DHT22;2136;48.502;9.194;2022-09-09T13:14:46;24.70;41.70
4245;DHT22;2136;48.502;9.194;2022-09-09T13:17:19;24.80;41.90
4245;DHT22;2136;48.502;9.194;2022-09-09T13:19:47;24.70;42.00
4245;DHT22;2136;48.502;9.194;2022-09-09T13:22:26;24.80;42.00
4245;DHT22;2136;48.502;9.194;2022-09-09T13:25:03;25.00;42.40
4245;DHT22;2136;48.502;9.194;2022-09-09T13:27:31;25.00;41.90
4245;DHT22;2136;48.502;9.194;2022-09-09T13:30:01;24.80;41.90
4245;DHT22;2136;48.502;9.194;2022-09-09T13:32:28;24.90;42.50
4245;DHT22;2136;48.502;9.194;2022-09-09T13:34:58;25.30;41.50
4245;DHT22;2136;48.502;9.194;2022-09-09T13:37:30;25.30;41.30
4245;DHT22;2136;48.502;9.194;2022-09-09T13:39:57;25.40;41.00
4245;DHT22;2136;48.502;9.194;2022-09-09T13:42:26;25.60;41.70
4245;DHT22;2136;48.502;9.194;2022-09-09T13:44:55;25.80;41.30
4245;DHT22;2136;48.502;9.194;2022-09-09T13:47:28;26.00;41.60
4245;DHT22;2136;48.502;9.194;2022-09-09T13:49:56;25.90;41.50
4245;DHT22;2136;48.502;9.194;2022-09-09T13:52:23;25.90;41.60
4245;DHT22;2136;48.502;9.194;2022-09-09T13:54:52;26.10;41.70
4245;DHT22;2136;48.502;9.194;2022-09-09T13:57:21;26.30;41.30
4245;DHT22;2136;48.502;9.194;2022-09-09T13:59:48;26.70;41.30
4245;DHT22;2136;48.502;9.194;2022-09-09T14:02:16;27.00;40.50
4245;DHT22;2136;48.502;9.194;2022-09-09T14:04:44;27.10;40.30
4245;DHT22;2136;48.502;9.194;2022-09-09T14:07:13;27.10;39.70
4245;DHT22;2136;48.502;9.194;2022-09-09T14:09:40;26.90;39.30
4245;DHT22;2136;48.502;9.194;2022-09-09T14:12:09;26.80;39.30
4245;DHT22;2136;48.502;9.194;2022-09-09T14:14:37;26.70;39.70
4245;DHT22;2136;48.502;9.194;2022-09-09T14:17:04;26.60;40.00
4245;DHT22;2136;48.502;9.194;2022-09-09T14:19:32;26.50;38.80
4245;DHT22;2136;48.502;9.194;2022-09-09T14:22:00;26.30;39.30
4245;DHT22;2136;48.502;9.194;2022-09-09T14:24:27;26.10;39.50
4245;DHT22;2136;48.502;9.194;2022-09-09T14:26:54;25.90;39.60
4245;DHT22;2136;48.502;9.194;2022-09-09T14:29:21;25.80;40.30
4245;DHT22;2136;48.502;9.194;2022-09-09T14:31:50;25.70;41.00
4245;DHT22;2136;48.502;9.194;2022-09-09T14:34:17;25.70;40.90
4245;DHT22;2136;48.502;9.194;2022-09-09T14:36:44;25.60;40.00
4245;DHT22;2136;48.502;9.194;2022-09-09T14:39:14;25.40;40.60
4245;DHT22;2136;48.502;9.194;2022-09-09T14:41:40;25.30;40.80
4245;DHT22;2136;48.502;9.194;2022-09-09T14:44:07;25.30;40.60
4245;DHT22;2136;48.502;9.194;2022-09-09T14:46:35;25.40;41.10
4245;DHT22;2136;48.502;9.194;2022-09-09T14:49:02;25.50;41.20
4245;DHT22;2136;48.502;9.194;2022-09-09T14:51:30;25.80;40.80
4245;DHT22;2136;48.502;9.194;2022-09-09T14:53:58;26.10;40.70
4245;DHT22;2136;48.502;9.194;2022-09-09T14:56:28;26.30;40.30
4245;DHT22;2136;48.502;9.194;2022-09-09T14:58:56;26.30;39.50
4245;DHT22;2136;48.502;9.194;2022-09-09T15:01:24;26.20;39.00
4245;DHT22;2136;48.502;9.194;2022-09-09T15:03:53;26.00;39.20
4245;DHT22;2136;48.502;9.194;2022-09-09T15:06:22;25.60;38.80
4245;DHT22;2136;48.502;9.194;2022-09-09T15:08:51;25.40;39.20
4245;DHT22;2136;48.502;9.194;2022-09-09T15:11:19;25.10;39.80
4245;DHT22;2136;48.502;9.194;2022-09-09T15:13:51;24.80;40.30
4245;DHT22;2136;48.502;9.194;2022-09-09T15:16:19;24.60;40.80
4245;DHT22;2136;48.502;9.194;2022-09-09T15:18:49;24.40;41.30
4245;DHT22;2136;48.502;9.194;2022-09-09T15:21:18;24.20;42.00
4245;DHT22;2136;48.502;9.194;2022-09-09T15:23:45;23.90;45.20
4245;DHT22;2136;48.502;9.194;2022-09-09T15:26:12;23.80;46.20
4245;DHT22;2136;48.502;9.194;2022-09-09T15:28:41;23.60;46.20
4245;DHT22;2136;48.502;9.194;2022-09-09T15:31:12;23.40;46.40
4245;DHT22;2136;48.502;9.194;2022-09-09T15:33:40;23.20;46.90
4245;DHT22;2136;48.502;9.194;2022-09-09T15:36:14;23.10;47.10
4245;DHT22;2136;48.502;9.194;2022-09-09T15:38:41;23.00;46.70
4245;DHT22;2136;48.502;9.194;2022-09-09T15:41:09;22.90;45.30
4245;DHT22;2136;48.502;9.194;2022-09-09T15:43:36;22.80;44.80
4245;DHT22;2136;48.502;9.194;2022-09-09T15:46:24;22.70;44.60
4245;DHT22;2136;48.502;9.194;2022-09-09T15:48:53;22.70;44.90
4245;DHT22;2136;48.502;9.194;2022-09-09T15:51:21;22.60;45.10
4245;DHT22;2136;48.502;9.194;2022-09-09T15:53:49;22.60;44.70
4245;DHT22;2136;48.502;9.194;2022-09-09T15:56:19;22.60;44.50
4245;DHT22;2136;48.502;9.194;2022-09-09T15:58:46;22.60;44.70
4245;DHT22;2136;48.502;9.194;2022-09-09T16:01:13;22.70;44.80
4245;DHT22;2136;48.502;9.194;2022-09-09T16:03:42;22.70;43.10
4245;DHT22;2136;48.502;9.194;2022-09-09T16:06:12;22.70;43.00
4245;DHT22;2136;48.502;9.194;2022-09-09T16:08:41;22.60;42.50
4245;DHT22;2136;48.502;9.194;2022-09-09T16:11:09;22.60;42.60
4245;DHT22;2136;48.502;9.194;2022-09-09T16:13:38;22.50;42.70
4245;DHT22;2136;48.502;9.194;2022-09-09T16:16:06;22.50;42.80
4245;DHT22;2136;48.502;9.194;2022-09-09T16:18:35;22.40;43.00
4245;DHT22;2136;48.502;9.194;2022-09-09T16:21:04;22.30;43.30
4245;DHT22;2136;48.502;9.194;2022-09-09T16:23:31;22.30;43.50
4245;DHT22;2136;48.502;9.194;2022-09-09T16:25:59;22.40;43.80